SHT4C EGLL-EGAC
Flight info
| Callsign | SHT4C |
|---|---|
| Flight time | N/A |
| Altitude | 32000 |
| Route | ULTIB T420 TNT UL28 RODOL UM65 TENSO L603 BELOX DCT REMSI DCT NINEB M148 MAGEE |
| Aircraft | A320/M-SDE3FGHIRWY/LB1 |
Departure
| Time | 2026-05-04 18:26 |
|---|---|
| Airport | London Heathrow Airport (EGLL) |
Arrival
| Time | N/A |
|---|---|
| Airport | George Best Belfast City Airport (EGAC) |
| Time | Latitude | Longitude | Altitude | Speed | Heading |
|---|---|---|---|---|---|
| 2026-05-04 17:58 | 51.47417 | -0.48953 | 90 ft | 0 kts | 180° |
| 2026-05-04 18:16 | 51.47439 | -0.48953 | 87 ft | 4 kts | 180° |
| 2026-05-04 18:17 | 51.47483 | -0.48931 | 89 ft | 4 kts | 252° |
| 2026-05-04 18:17 | 51.47486 | -0.48897 | 88 ft | 1 kts | 270° |
| 2026-05-04 18:17 | 51.47486 | -0.48839 | 89 ft | 0 kts | 270° |
| 2026-05-04 18:19 | 51.47486 | -0.48845 | 89 ft | 1 kts | 270° |
| 2026-05-04 18:19 | 51.47487 | -0.48865 | 88 ft | 2 kts | 273° |
| 2026-05-04 18:19 | 51.47491 | -0.48895 | 87 ft | 3 kts | 288° |
| 2026-05-04 18:20 | 51.47504 | -0.48925 | 90 ft | 3 kts | 309° |
| 2026-05-04 18:20 | 51.47529 | -0.48957 | 88 ft | 6 kts | 335° |
| 2026-05-04 18:20 | 51.47567 | -0.48933 | 87 ft | 7 kts | 64° |
| 2026-05-04 18:20 | 51.47577 | -0.48837 | 86 ft | 11 kts | 90° |
| 2026-05-04 18:21 | 51.47577 | -0.48706 | 86 ft | 12 kts | 90° |
| 2026-05-04 18:21 | 51.47578 | -0.48561 | 86 ft | 14 kts | 90° |
| 2026-05-04 18:21 | 51.47557 | -0.48475 | 91 ft | 6 kts | 184° |
| 2026-05-04 18:21 | 51.47514 | -0.48475 | 86 ft | 7 kts | 179° |
| 2026-05-04 18:22 | 51.47439 | -0.48474 | 86 ft | 12 kts | 179° |
| 2026-05-04 18:22 | 51.47349 | -0.48473 | 90 ft | 13 kts | 180° |
| 2026-05-04 18:22 | 51.47253 | -0.48473 | 86 ft | 14 kts | 180° |
| 2026-05-04 18:22 | 51.47149 | -0.48472 | 86 ft | 16 kts | 179° |
| 2026-05-04 18:23 | 51.47032 | -0.48470 | 88 ft | 18 kts | 179° |
| 2026-05-04 18:23 | 51.46901 | -0.48470 | 87 ft | 21 kts | 180° |
| 2026-05-04 18:23 | 51.46826 | -0.48469 | 86 ft | 9 kts | 180° |
| 2026-05-04 18:23 | 51.46758 | -0.48475 | 86 ft | 10 kts | 207° |
| 2026-05-04 18:24 | 51.46740 | -0.48593 | 86 ft | 12 kts | 271° |
| 2026-05-04 18:24 | 51.46724 | -0.48731 | 88 ft | 14 kts | 224° |
| 2026-05-04 18:24 | 51.46626 | -0.48752 | 86 ft | 15 kts | 196° |
| 2026-05-04 18:24 | 51.46519 | -0.48783 | 90 ft | 17 kts | 162° |
| 2026-05-04 18:25 | 51.46479 | -0.48629 | 86 ft | 5 kts | 89° |
| 2026-05-04 18:25 | 51.46479 | -0.48628 | 86 ft | 0 kts | 89° |
| 2026-05-04 18:25 | 51.46479 | -0.48425 | 88 ft | 53 kts | 90° |
| 2026-05-04 18:26 | 51.46482 | -0.47462 | 86 ft | 116 kts | 89° |
| 2026-05-04 18:26 | 51.46489 | -0.45895 | 93 ft | 163 kts | 89° |
| 2026-05-04 18:26 | 51.46492 | -0.44008 | 679 ft | 169 kts | 90° |
| 2026-05-04 18:26 | 51.46497 | -0.42738 | 1089 ft | 179 kts | 85° |
| 2026-05-04 18:27 | 51.46842 | -0.40791 | 1444 ft | 197 kts | 55° |
| 2026-05-04 18:27 | 51.47740 | -0.38995 | 1797 ft | 218 kts | 50° |
| 2026-05-04 18:27 | 51.48756 | -0.37010 | 2313 ft | 239 kts | 50° |
| 2026-05-04 18:27 | 51.49776 | -0.34999 | 3195 ft | 246 kts | 51° |
| 2026-05-04 18:28 | 51.50871 | -0.32835 | 4099 ft | 254 kts | 51° |
| 2026-05-04 18:28 | 51.51992 | -0.30577 | 4997 ft | 262 kts | 54° |
| 2026-05-04 18:28 | 51.52756 | -0.27939 | 5847 ft | 269 kts | 70° |
| 2026-05-04 18:28 | 51.53547 | -0.25194 | 6731 ft | 275 kts | 53° |
| 2026-05-04 18:29 | 51.54985 | -0.23157 | 7559 ft | 281 kts | 27° |
| 2026-05-04 18:29 | 51.56869 | -0.22303 | 8380 ft | 286 kts | 2° |
| 2026-05-04 18:29 | 51.58838 | -0.22734 | 9275 ft | 287 kts | 341° |
| 2026-05-04 18:29 | 51.60770 | -0.23646 | 10156 ft | 291 kts | 341° |
| 2026-05-04 18:30 | 51.64576 | -0.26524 | 11149 ft | 320 kts | 328° |
| 2026-05-04 18:30 | 51.66496 | -0.28320 | 11802 ft | 327 kts | 327° |
| 2026-05-04 18:30 | 51.68428 | -0.30173 | 12547 ft | 331 kts | 327° |
| 2026-05-04 18:31 | 51.70414 | -0.32095 | 13316 ft | 335 kts | 328° |
| 2026-05-04 18:31 | 51.72421 | -0.34044 | 13881 ft | 339 kts | 328° |
| 2026-05-04 18:31 | 51.74451 | -0.36013 | 14019 ft | 340 kts | 328° |
| 2026-05-04 18:31 | 51.76475 | -0.37977 | 14053 ft | 340 kts | 328° |
| 2026-05-04 18:32 | 51.78401 | -0.39847 | 14029 ft | 339 kts | 328° |
| 2026-05-04 18:32 | 51.80425 | -0.41812 | 14028 ft | 340 kts | 328° |
| 2026-05-04 18:32 | 51.82343 | -0.43674 | 14030 ft | 338 kts | 328° |
| 2026-05-04 18:32 | 51.84357 | -0.45637 | 14026 ft | 338 kts | 327° |
| 2026-05-04 18:33 | 51.86366 | -0.47586 | 14030 ft | 336 kts | 327° |
| 2026-05-04 18:33 | 51.88376 | -0.49533 | 14139 ft | 339 kts | 327° |
| 2026-05-04 18:33 | 51.90408 | -0.51503 | 14851 ft | 341 kts | 327° |
| 2026-05-04 18:33 | 51.92452 | -0.53491 | 15486 ft | 346 kts | 327° |
| 2026-05-04 18:34 | 51.94521 | -0.55511 | 16094 ft | 350 kts | 327° |
| 2026-05-04 18:34 | 51.96456 | -0.57400 | 16656 ft | 355 kts | 327° |
| 2026-05-04 18:34 | 51.98568 | -0.59463 | 17260 ft | 360 kts | 327° |
| 2026-05-04 18:34 | 52.00743 | -0.61590 | 17898 ft | 364 kts | 327° |
| 2026-05-04 18:35 | 52.02914 | -0.63716 | 18480 ft | 369 kts | 327° |
| 2026-05-04 18:35 | 52.05123 | -0.65878 | 19067 ft | 372 kts | 327° |
| 2026-05-04 18:35 | 52.06631 | -0.67356 | 19482 ft | 374 kts | 327° |
| 2026-05-04 18:35 | 52.08922 | -0.69608 | 20100 ft | 376 kts | 326° |
| 2026-05-04 18:36 | 52.11130 | -0.71783 | 20676 ft | 379 kts | 326° |
| 2026-05-04 18:36 | 52.13207 | -0.73830 | 21182 ft | 382 kts | 326° |
| 2026-05-04 18:36 | 52.15053 | -0.75652 | 21618 ft | 384 kts | 326° |
| 2026-05-04 18:36 | 52.17347 | -0.77916 | 22154 ft | 387 kts | 326° |
| 2026-05-04 18:37 | 52.19656 | -0.80199 | 22685 ft | 390 kts | 325° |
| 2026-05-04 18:37 | 52.21943 | -0.82466 | 23207 ft | 393 kts | 325° |
| 2026-05-04 18:37 | 52.24220 | -0.84727 | 23712 ft | 396 kts | 325° |
| 2026-05-04 18:37 | 52.26588 | -0.87077 | 24176 ft | 399 kts | 325° |
| 2026-05-04 18:38 | 52.28971 | -0.89437 | 24646 ft | 401 kts | 325° |
| 2026-05-04 18:38 | 52.30698 | -0.91148 | 25002 ft | 402 kts | 325° |
| 2026-05-04 18:38 | 52.33059 | -0.93495 | 25469 ft | 404 kts | 325° |
| 2026-05-04 18:38 | 52.35466 | -0.95896 | 25932 ft | 406 kts | 325° |
| 2026-05-04 18:39 | 52.37886 | -0.98316 | 26359 ft | 409 kts | 326° |
| 2026-05-04 18:39 | 52.40320 | -1.00750 | 26782 ft | 412 kts | 326° |
| 2026-05-04 18:39 | 52.42736 | -1.03171 | 27190 ft | 414 kts | 326° |
| 2026-05-04 18:39 | 52.45176 | -1.05617 | 27603 ft | 417 kts | 326° |
| 2026-05-04 18:40 | 52.47658 | -1.08107 | 28006 ft | 420 kts | 326° |
| 2026-05-04 18:40 | 52.49426 | -1.09883 | 28289 ft | 422 kts | 327° |
| 2026-05-04 18:40 | 52.51937 | -1.12402 | 28690 ft | 424 kts | 327° |
| 2026-05-04 18:40 | 52.54123 | -1.14593 | 29038 ft | 426 kts | 327° |
| 2026-05-04 18:41 | 52.56694 | -1.17178 | 29451 ft | 429 kts | 327° |
| 2026-05-04 18:41 | 52.59208 | -1.19715 | 29830 ft | 431 kts | 327° |
| 2026-05-04 18:41 | 52.61772 | -1.22309 | 30209 ft | 434 kts | 327° |
| 2026-05-04 18:41 | 52.64309 | -1.24880 | 30541 ft | 437 kts | 327° |
| 2026-05-04 18:42 | 52.66803 | -1.27411 | 30881 ft | 439 kts | 327° |
| 2026-05-04 18:42 | 52.69414 | -1.30066 | 31240 ft | 442 kts | 327° |
| 2026-05-04 18:42 | 52.72037 | -1.32729 | 31622 ft | 443 kts | 327° |
| 2026-05-04 18:42 | 52.74499 | -1.35225 | 31973 ft | 443 kts | 328° |
| 2026-05-04 18:43 | 52.77107 | -1.37882 | 32050 ft | 435 kts | 329° |
| 2026-05-04 18:43 | 52.79634 | -1.40469 | 32056 ft | 419 kts | 329° |